Time;durP1;ratioP1;P1;durP2;ratioP2;P2;SDS_P1;SDS_P2;PMS_P1;PMS_P2;Temp;Humidity;BMP_temperature;BMP_pressure;BME280_temperature;BME280_humidity;BME280_pressure;Samples;Min_cycle;Max_cycle;Signal;HPM_P1;HPM_P2
2022/09/12 00:00:37;;;;;;;6.03;4.10;;;19.80;59.00;;;;;;5845540;24;20632;-85
2022/09/12 00:03:10;;;;;;;5.18;4.13;;;19.90;59.00;;;;;;5822961;24;20186;-84
2022/09/12 00:05:44;;;;;;;4.40;4.00;;;19.80;59.00;;;;;;5822876;24;20283;-84
2022/09/12 00:08:14;;;;;;;5.55;4.10;;;19.80;58.90;;;;;;5845215;24;20167;-84
2022/09/12 00:10:41;;;;;;;5.43;4.40;;;19.80;59.00;;;;;;5823251;24;20166;-85
2022/09/12 00:13:07;;;;;;;4.68;4.20;;;19.80;59.20;;;;;;5822934;24;20171;-84
2022/09/12 00:15:41;;;;;;;4.82;4.00;;;19.80;58.90;;;;;;5845261;24;20253;-84
2022/09/12 00:18:13;;;;;;;5.03;4.45;;;19.80;59.00;;;;;;5842992;24;20609;-84
2022/09/12 00:20:43;;;;;;;4.85;4.10;;;19.80;59.00;;;;;;5881150;24;20625;-85
2022/09/12 00:23:13;;;;;;;5.68;4.13;;;19.90;59.00;;;;;;6097099;23;20183;-85
2022/09/12 00:25:46;;;;;;;5.55;4.50;;;19.80;59.00;;;;;;6005939;23;20183;-84
2022/09/12 00:28:12;;;;;;;4.95;4.20;;;19.80;59.00;;;;;;6101873;23;20164;-84
2022/09/12 00:30:41;;;;;;;5.10;3.97;;;19.80;59.00;;;;;;6101176;23;20155;-85
2022/09/12 00:33:10;;;;;;;4.43;3.80;;;19.80;59.00;;;;;;6127665;23;20197;-85
2022/09/12 00:35:44;;;;;;;5.60;4.07;;;19.80;59.10;;;;;;6150635;23;20153;-84
2022/09/12 00:38:11;;;;;;;4.38;3.97;;;19.80;59.70;;;;;;6141020;23;20226;-84
2022/09/12 00:40:37;;;;;;;4.57;4.18;;;19.80;59.00;;;;;;6106563;23;20634;-84
2022/09/12 00:43:11;;;;;;;4.68;4.10;;;19.80;59.10;;;;;;6130403;23;20207;-85
2022/09/12 00:45:37;;;;;;;6.25;4.03;;;19.80;59.10;;;;;;6059220;23;20643;-84
2022/09/12 00:48:07;;;;;;;4.20;3.80;;;19.80;59.70;;;;;;6156646;23;20135;-84
2022/09/12 00:50:37;;;;;;;5.85;4.20;;;19.80;59.10;;;;;;6043187;23;20161;-85
2022/09/12 00:53:05;;;;;;;4.65;3.80;;;19.80;59.10;;;;;;6042488;23;20199;-84
2022/09/12 00:55:40;;;;;;;5.35;3.90;;;19.80;59.10;;;;;;6090473;23;20194;-83
2022/09/12 00:58:18;;;;;;;4.45;4.03;;;19.80;59.10;;;;;;6066335;23;20153;-84
2022/09/12 01:00:47;;;;;;;4.72;4.28;;;19.80;59.10;;;;;;6018503;23;20235;-84
2022/09/12 01:03:15;;;;;;;4.72;4.20;;;19.80;59.20;;;;;;6090391;23;20183;-83
2022/09/12 01:05:46;;;;;;;5.32;4.40;;;19.80;59.20;;;;;;6090445;23;20240;-84
2022/09/12 01:08:12;;;;;;;4.93;4.03;;;19.80;59.10;;;;;;6066575;23;20248;-84
2022/09/12 01:10:42;;;;;;;4.40;4.00;;;19.80;59.10;;;;;;6090734;23;20156;-84
2022/09/12 01:13:13;;;;;;;4.75;4.25;;;19.80;59.10;;;;;;6042436;23;20314;-84
2022/09/12 01:15:45;;;;;;;4.10;3.70;;;19.80;59.20;;;;;;6019177;23;20172;-84
2022/09/12 01:18:40;;;;;;;4.53;4.13;;;19.80;59.20;;;;;;6089984;23;20137;-84
2022/09/12 01:21:45;;;;;;;5.68;4.40;;;19.80;59.10;;;;;;6071186;23;20163;-84
2022/09/12 01:24:31;;;;;;;4.60;3.90;;;19.80;59.20;;;;;;6129980;23;20182;-84
2022/09/12 01:27:22;;;;;;;4.78;4.28;;;19.80;59.20;;;;;;6106613;23;20571;-84
2022/09/12 01:30:23;;;;;;;5.30;4.05;;;19.80;59.30;;;;;;6131361;23;20144;-84
2022/09/12 01:33:18;;;;;;;4.93;4.43;;;19.70;59.20;;;;;;6156567;23;20143;-84
2022/09/12 01:36:24;;;;;;;4.43;4.03;;;19.80;59.30;;;;;;6131251;23;20576;-84
2022/09/12 01:39:35;;;;;;;4.70;3.90;;;19.80;59.20;;;;;;6076754;23;20223;-84
2022/09/12 01:42:23;;;;;;;5.35;3.88;;;19.80;59.20;;;;;;6017546;23;20167;-83
2022/09/12 01:45:02;;;;;;;4.60;3.85;;;19.80;59.20;;;;;;6077053;23;20686;-84
2022/09/12 01:47:40;;;;;;;4.47;3.97;;;19.80;59.30;;;;;;6030413;23;20303;-84
2022/09/12 01:50:14;;;;;;;4.13;3.72;;;19.70;59.10;;;;;;6101270;23;20178;-85
2022/09/12 01:52:53;;;;;;;4.22;3.72;;;19.80;59.20;;;;;;6101610;23;20567;-84
2022/09/12 01:55:28;;;;;;;4.63;3.70;;;19.70;59.20;;;;;;6055928;23;20166;-84
2022/09/12 01:57:58;;;;;;;4.18;3.78;;;19.70;59.20;;;;;;6102511;23;20131;-84
2022/09/12 02:00:24;;;;;;;3.75;3.40;;;19.80;59.20;;;;;;6031808;23;20190;-84
2022/09/12 02:02:56;;;;;;;5.22;4.25;;;19.70;59.20;;;;;;6078706;23;20206;-84
2022/09/12 02:05:32;;;;;;;5.20;4.18;;;19.70;59.20;;;;;;6078998;23;20144;-85
2022/09/12 02:08:16;;;;;;;4.30;3.90;;;19.80;59.20;;;;;;6031072;23;20480;-84
2022/09/12 02:10:56;;;;;;;4.72;3.95;;;19.70;59.20;;;;;;6102946;23;20140;-84
2022/09/12 02:13:37;;;;;;;4.30;3.90;;;19.80;59.30;;;;;;6129155;23;20150;-84
2022/09/12 02:16:07;;;;;;;5.13;4.55;;;19.70;59.20;;;;;;6079879;23;20255;-85
2022/09/12 02:18:37;;;;;;;4.85;4.22;;;19.70;59.20;;;;;;6078998;23;20536;-84
2022/09/12 02:21:08;;;;;;;4.68;3.80;;;19.70;59.30;;;;;;6078855;23;20461;-84
2022/09/12 02:23:35;;;;;;;3.90;3.50;;;19.70;59.20;;;;;;6053991;23;20192;-85
2022/09/12 02:26:10;;;;;;;4.38;3.90;;;19.70;59.20;;;;;;6102711;23;20132;-84
2022/09/12 02:28:38;;;;;;;4.20;3.80;;;19.70;59.20;;;;;;6031704;23;20166;-85
2022/09/12 02:31:20;;;;;;;4.05;3.65;;;19.80;59.30;;;;;;6078588;23;20663;-84
2022/09/12 02:33:53;;;;;;;4.38;3.97;;;19.70;59.20;;;;;;6033031;23;20160;-84
2022/09/12 02:36:48;;;;;;;4.70;3.78;;;19.70;59.20;;;;;;6102990;23;20223;-84
2022/09/12 02:39:20;;;;;;;4.47;3.90;;;19.80;59.20;;;;;;6156194;23;20539;-85
2022/09/12 02:41:49;;;;;;;4.53;4.13;;;19.70;59.20;;;;;;6083420;23;20183;-84
2022/09/12 02:44:19;;;;;;;6.95;4.00;;;19.70;59.40;;;;;;6107926;23;20209;-83
2022/09/12 02:46:50;;;;;;;4.10;3.70;;;19.70;59.20;;;;;;6035211;23;20179;-84
2022/09/12 02:49:16;;;;;;;4.88;4.22;;;19.70;59.20;;;;;;6059815;23;20159;-83
2022/09/12 02:51:43;;;;;;;4.50;4.10;;;19.70;59.30;;;;;;6107844;23;20237;-84
2022/09/12 02:54:10;;;;;;;6.43;4.05;;;19.70;59.30;;;;;;6131668;23;20220;-83
2022/09/12 02:56:40;;;;;;;4.82;4.00;;;19.70;59.20;;;;;;6131945;23;20132;-84
2022/09/12 02:59:11;;;;;;;4.03;3.47;;;19.70;59.30;;;;;;6107184;23;20151;-84
2022/09/12 03:02:20;;;;;;;5.72;4.18;;;19.70;59.20;;;;;;6059113;23;20159;-84
2022/09/12 03:05:19;;;;;;;4.88;3.78;;;19.70;59.30;;;;;;6132068;23;20166;-84
2022/09/12 03:08:19;;;;;;;4.78;4.22;;;19.70;59.30;;;;;;6131397;23;20207;-83
2022/09/12 03:11:07;;;;;;;4.93;4.03;;;19.70;59.30;;;;;;6158044;23;20136;-85
2022/09/12 03:13:49;;;;;;;5.05;4.15;;;19.70;59.30;;;;;;6131591;23;20162;-84
2022/09/12 03:16:36;;;;;;;4.40;3.85;;;19.70;59.20;;;;;;6085692;23;20194;-84
2022/09/12 03:19:40;;;;;;;4.20;3.80;;;19.70;59.30;;;;;;6132164;23;20234;-84
2022/09/12 03:22:40;;;;;;;4.07;3.60;;;19.70;59.20;;;;;;6110919;23;20182;-84
2022/09/12 03:25:17;;;;;;;4.18;3.78;;;19.70;59.30;;;;;;6157781;23;20155;-84
2022/09/12 03:27:46;;;;;;;4.70;4.05;;;19.70;59.30;;;;;;6131630;23;20143;-84
2022/09/12 03:34:30;;;;;;;;;;;;;;;;;;;;;
2022/09/12 03:36:57;;;;;;;4.18;3.78;;;19.70;59.40;;;;;;5771524;24;20274;-84
2022/09/12 03:39:27;;;;;;;4.88;3.70;;;19.60;59.30;;;;;;5801098;24;20185;-84
2022/09/12 03:41:56;;;;;;;4.20;3.80;;;19.70;59.40;;;;;;5801226;24;20166;-84
2022/09/12 03:44:25;;;;;;;4.38;3.78;;;19.70;59.40;;;;;;5823129;24;20191;-84
2022/09/12 03:47:02;;;;;;;4.78;3.88;;;19.60;59.40;;;;;;5801273;24;20162;-84
2022/09/12 03:49:28;;;;;;;4.82;3.95;;;19.70;60.10;;;;;;5779874;24;20158;-84
2022/09/12 03:51:54;;;;;;;4.00;3.60;;;19.70;59.40;;;;;;5801184;24;20163;-84
2022/09/12 03:54:22;;;;;;;4.18;3.78;;;19.70;59.40;;;;;;5822961;24;20504;-84
2022/09/12 03:56:52;;;;;;;4.00;3.60;;;19.70;59.40;;;;;;5823745;24;20167;-83
2022/09/12 03:59:22;;;;;;;4.82;3.53;;;19.70;59.40;;;;;;5779337;24;20170;-84
2022/09/12 04:01:48;;;;;;;4.13;3.70;;;19.70;59.30;;;;;;5740124;24;20255;-84
2022/09/12 04:04:20;;;;;;;4.80;3.70;;;19.60;59.30;;;;;;5792655;24;20231;-85
2022/09/12 04:06:51;;;;;;;5.53;3.90;;;19.70;59.40;;;;;;5820191;24;20245;-84
2022/09/12 04:09:17;;;;;;;4.30;3.90;;;19.70;59.40;;;;;;5965696;23;20219;-84
2022/09/12 04:11:48;;;;;;;3.92;3.55;;;19.70;59.40;;;;;;6077643;23;20177;-84
2022/09/12 04:14:18;;;;;;;4.20;3.78;;;19.70;59.40;;;;;;6028963;23;20156;-85
2022/09/12 04:16:50;;;;;;;3.75;3.40;;;19.60;59.40;;;;;;6053006;23;20187;-84
2022/09/12 04:19:17;;;;;;;4.97;3.80;;;19.70;59.40;;;;;;6028440;23;20160;-84
2022/09/12 04:21:43;;;;;;;4.40;3.65;;;19.60;59.30;;;;;;6101805;23;20215;-84
2022/09/12 04:24:09;;;;;;;4.10;3.60;;;19.60;59.40;;;;;;6077952;23;20203;-85
2022/09/12 04:26:42;;;;;;;5.10;3.65;;;19.60;59.30;;;;;;6125624;23;20148;-84
2022/09/12 04:29:13;;;;;;;4.05;3.50;;;19.60;59.40;;;;;;6028599;23;20160;-84
2022/09/12 04:31:42;;;;;;;3.92;3.58;;;19.70;59.40;;;;;;6126471;23;20145;-84
2022/09/12 04:34:08;;;;;;;5.15;3.85;;;19.60;59.30;;;;;;6030035;23;20630;-84
2022/09/12 04:36:41;;;;;;;4.57;3.72;;;19.70;59.40;;;;;;6125890;23;20206;-84
2022/09/12 04:39:10;;;;;;;4.07;3.67;;;19.60;59.40;;;;;;6078646;23;20206;-84
2022/09/12 04:41:37;;;;;;;4.40;4.00;;;19.70;59.80;;;;;;6106054;23;20140;-84
2022/09/12 04:44:05;;;;;;;3.60;3.30;;;19.60;59.30;;;;;;6130656;23;20168;-84
2022/09/12 04:46:38;;;;;;;3.90;3.42;;;19.60;59.40;;;;;;6180389;23;20564;-84
2022/09/12 04:49:08;;;;;;;4.13;3.65;;;19.60;59.60;;;;;;6034204;23;20159;-85
2022/09/12 04:51:38;;;;;;;4.80;3.90;;;19.60;59.40;;;;;;6057396;23;20186;-84
2022/09/12 04:54:11;;;;;;;4.03;3.30;;;19.60;59.50;;;;;;6042752;23;20223;-84
2022/09/12 04:56:38;;;;;;;4.20;3.80;;;19.60;59.60;;;;;;6042228;23;20230;-84
2022/09/12 04:59:05;;;;;;;4.03;3.63;;;19.60;59.70;;;;;;6066333;23;20161;-84
2022/09/12 05:01:40;;;;;;;5.13;3.83;;;19.60;59.70;;;;;;6090447;23;20169;-83
2022/09/12 05:04:06;;;;;;;4.05;3.65;;;19.50;59.60;;;;;;6042227;23;20192;-84
2022/09/12 05:06:39;;;;;;;3.67;3.38;;;19.60;59.60;;;;;;6067129;23;20149;-84
2022/09/12 05:09:06;;;;;;;3.72;3.25;;;19.60;59.30;;;;;;6019476;23;20161;-85
2022/09/12 05:11:34;;;;;;;4.55;3.35;;;19.50;59.20;;;;;;6090504;23;20219;-83
2022/09/12 05:14:06;;;;;;;3.58;3.13;;;19.60;59.10;;;;;;6042674;23;20232;-83
2022/09/12 05:16:37;;;;;;;3.47;3.17;;;19.60;59.10;;;;;;6009472;23;20163;-83
2022/09/12 05:19:08;;;;;;;3.30;3.00;;;19.60;59.10;;;;;;6009426;23;20508;-83
2022/09/12 05:21:39;;;;;;;3.20;2.92;;;19.50;58.90;;;;;;5985994;23;20690;-84
2022/09/12 05:25:23;;;;;;;3.38;3.08;;;19.50;58.70;;;;;;6015991;23;20206;-83
2022/09/12 05:30:47;;;;;;;3.22;2.92;;;19.50;58.90;;;;;;5944457;24;20169;-83
2022/09/12 05:33:14;;;;;;;4.10;2.97;;;19.50;58.90;;;;;;5926653;24;20176;-85
2022/09/12 05:35:49;;;;;;;3.13;2.83;;;19.50;58.90;;;;;;5902641;24;20731;-84
2022/09/12 05:38:15;;;;;;;3.17;2.88;;;19.50;58.80;;;;;;5903073;24;20228;-84
2022/09/12 05:40:43;;;;;;;3.10;2.80;;;19.50;58.80;;;;;;5926119;24;20168;-84
2022/09/12 05:43:11;;;;;;;3.85;3.40;;;19.50;59.00;;;;;;5928099;24;20184;-84
2022/09/12 05:45:37;;;;;;;3.67;2.90;;;19.50;59.00;;;;;;5950106;24;20168;-84
2022/09/12 05:48:05;;;;;;;3.05;2.70;;;19.50;58.90;;;;;;5953607;24;20563;-83
2022/09/12 05:50:32;;;;;;;3.30;3.00;;;19.50;59.10;;;;;;5937069;23;20483;-83
2022/09/12 05:52:59;;;;;;;3.30;2.90;;;19.50;59.10;;;;;;5921142;24;20240;-87
2022/09/12 05:55:30;;;;;;;3.08;2.78;;;19.40;59.20;;;;;;5921727;24;20165;-86
2022/09/12 05:57:58;;;;;;;3.25;2.95;;;19.50;59.20;;;;;;5876244;24;20173;-86
2022/09/12 06:00:24;;;;;;;3.67;3.08;;;19.60;59.30;;;;;;5900852;24;20161;-83
2022/09/12 06:02:52;;;;;;;3.40;3.10;;;19.60;59.40;;;;;;5928528;24;20178;-82
2022/09/12 06:05:18;;;;;;;3.30;3.00;;;19.60;59.40;;;;;;5986659;24;20171;-85
2022/09/12 06:07:47;;;;;;;3.70;2.97;;;19.60;59.40;;;;;;6048401;23;20236;-83
2022/09/12 06:10:16;;;;;;;3.40;3.10;;;19.60;59.40;;;;;;6073414;23;20157;-82
2022/09/12 06:12:48;;;;;;;3.38;3.08;;;19.70;59.40;;;;;;6052067;23;20184;-79
2022/09/12 06:15:17;;;;;;;3.20;2.90;;;19.70;59.20;;;;;;6025833;23;20162;-83
2022/09/12 06:17:42;;;;;;;3.80;2.92;;;19.70;59.30;;;;;;5997819;23;20249;-85
2022/09/12 06:20:30;;;;;;;3.05;2.75;;;19.70;59.30;;;;;;6091072;23;20212;-86
2022/09/12 06:23:44;;;;;;;3.00;2.70;;;19.70;59.10;;;;;;6042359;23;20195;-84
2022/09/12 06:26:25;;;;;;;;;;;;;;;;;;;;;
2022/09/12 06:29:07;;;;;;;5.18;3.38;;;19.80;59.90;;;;;;5934092;24;20238;-88
2022/09/12 06:31:41;;;;;;;3.35;2.95;;;19.70;59.40;;;;;;5964245;23;20166;-86
2022/09/12 06:34:30;;;;;;;3.88;3.22;;;19.80;59.40;;;;;;5980265;24;20239;-86
2022/09/12 06:37:27;;;;;;;3.65;3.10;;;19.80;59.50;;;;;;6009765;23;20162;-86
2022/09/12 06:39:59;;;;;;;3.33;3.03;;;19.80;59.60;;;;;;6012950;23;20182;-87
2022/09/12 06:49:07;;;;;;;5.55;3.13;;;19.90;59.90;;;;;;5944643;24;20157;-86
2022/09/12 06:51:35;;;;;;;3.05;2.75;;;19.80;60.30;;;;;;5862244;24;20165;-86
2022/09/12 06:54:03;;;;;;;3.20;2.90;;;19.80;60.80;;;;;;5884789;24;20175;-84
2022/09/12 06:56:31;;;;;;;3.80;3.42;;;19.80;60.70;;;;;;5884150;24;20176;-85
2022/09/12 06:59:00;;;;;;;3.40;3.08;;;19.90;60.60;;;;;;5928370;24;20161;-86
2022/09/12 07:01:29;;;;;;;3.42;2.97;;;19.80;61.10;;;;;;5907065;24;20160;-83
2022/09/12 07:03:58;;;;;;;3.40;2.85;;;19.90;60.90;;;;;;5906702;24;20188;-83
2022/09/12 07:06:38;;;;;;;;;;;;;;;;;;;;;
2022/09/12 07:09:09;;;;;;;4.25;3.00;;;19.90;60.60;;;;;;5886171;24;20180;-85
2022/09/12 07:12:05;;;;;;;3.30;2.97;;;19.80;60.80;;;;;;5850108;24;20163;-85
2022/09/12 07:14:33;;;;;;;3.88;3.10;;;19.90;60.90;;;;;;5812791;24;20162;-84
2022/09/12 07:17:14;;;;;;;3.58;3.05;;;19.80;60.80;;;;;;5880035;24;20162;-84
2022/09/12 07:20:08;;;;;;;3.90;3.00;;;19.80;61.20;;;;;;5903439;24;20164;-84
2022/09/12 07:23:17;;;;;;;;;;;;;;;;;;;;;
2022/09/12 07:26:16;;;;;;;3.88;3.10;;;19.90;61.40;;;;;;5925870;24;20179;-84
2022/09/12 07:28:43;;;;;;;3.35;2.92;;;19.90;61.40;;;;;;5932719;24;20277;-86
2022/09/12 07:31:13;;;;;;;3.25;2.95;;;19.90;61.40;;;;;;5932993;24;20167;-85
2022/09/12 07:33:40;;;;;;;4.95;3.33;;;20.00;61.60;;;;;;5955518;24;20160;-86
2022/09/12 07:36:13;;;;;;;5.00;3.10;;;19.90;61.40;;;;;;5872063;24;20502;-86
2022/09/12 07:38:39;;;;;;;5.22;3.10;;;19.90;61.80;;;;;;5870739;24;20217;-84
2022/09/12 07:41:18;;;;;;;2.83;2.63;;;19.90;61.20;;;;;;5872083;24;20166;-84
2022/09/12 07:43:47;;;;;;;3.50;2.95;;;19.90;61.50;;;;;;5925676;24;20210;-85
2022/09/12 07:46:19;;;;;;;3.67;3.30;;;19.90;61.70;;;;;;5904835;24;20172;-86
2022/09/12 07:48:50;;;;;;;3.28;2.80;;;19.90;62.20;;;;;;5921960;24;20231;-85
2022/09/12 07:51:22;;;;;;;3.67;3.00;;;19.90;61.80;;;;;;5921687;24;20153;-85
2022/09/12 07:53:51;;;;;;;3.25;2.90;;;19.90;62.00;;;;;;5854162;24;20276;-84
2022/09/12 07:56:21;;;;;;;4.50;2.90;;;19.80;62.20;;;;;;5905241;24;20167;-86
2022/09/12 07:59:02;;;;;;;3.10;2.80;;;19.90;62.50;;;;;;5999676;23;20171;-85
2022/09/12 08:01:49;;;;;;;;;;;;;;;;;;;;;
2022/09/12 08:14:43;;;;;;;6.80;2.72;;;20.00;62.20;;;;;;6124151;23;20143;-84
2022/09/12 08:17:23;;;;;;;5.43;2.95;;;20.00;62.30;;;;;;6032002;23;20197;-85
2022/09/12 08:20:26;;;;;;;5.85;2.88;;;20.10;62.10;;;;;;6054926;23;20225;-85
2022/09/12 08:22:56;;;;;;;3.75;2.80;;;20.10;62.50;;;;;;6043734;23;20315;-84
2022/09/12 08:25:28;;;;;;;5.88;2.80;;;20.10;62.50;;;;;;6055367;23;20153;-84
2022/09/12 08:28:42;;;;;;;3.22;2.63;;;20.10;62.50;;;;;;6055688;23;20230;-85
2022/09/12 08:31:23;;;;;;;5.22;2.90;;;20.20;62.40;;;;;;6034931;23;20160;-85
2022/09/12 08:33:59;;;;;;;4.53;2.80;;;20.20;62.50;;;;;;6056577;23;20271;-85
2022/09/12 08:36:28;;;;;;;4.18;2.92;;;20.10;62.30;;;;;;6027944;23;20179;-86
2022/09/12 08:39:01;;;;;;;5.15;2.70;;;20.20;62.20;;;;;;6027947;23;20203;-86
2022/09/12 08:41:34;;;;;;;3.08;2.58;;;20.10;62.30;;;;;;6107095;23;20591;-86
2022/09/12 08:44:31;;;;;;;3.22;2.78;;;20.20;62.00;;;;;;6036700;23;20190;-85
2022/09/12 08:53:53;;;;;;;2.55;2.35;;;20.20;61.80;;;;;;6156719;23;20151;-84
2022/09/12 08:56:20;;;;;;;3.55;2.80;;;20.20;61.70;;;;;;6082419;23;20163;-84
2022/09/12 08:58:56;;;;;;;2.97;2.67;;;20.20;61.60;;;;;;6080737;23;20217;-85
2022/09/12 09:01:41;;;;;;;3.47;2.53;;;20.30;61.60;;;;;;6057972;23;20586;-85
2022/09/12 09:05:00;;;;;;;3.03;2.70;;;20.30;61.30;;;;;;6039103;23;20191;-84
2022/09/12 09:07:47;;;;;;;4.18;2.90;;;20.30;61.20;;;;;;6041165;23;20534;-85
2022/09/12 09:10:57;;;;;;;3.65;2.65;;;20.30;60.80;;;;;;6042099;23;20233;-84
2022/09/12 09:20:31;;;;;;;;;;;;;;;;;;;;;
2022/09/12 09:23:09;;;;;;;3.00;2.70;;;20.40;60.00;;;;;;5892888;24;20626;-85
2022/09/12 09:26:28;;;;;;;;;;;;;;;;;;;;;
2022/09/12 09:36:22;;;;;;;2.95;2.65;;;20.50;59.40;;;;;;5769265;24;20164;-85
2022/09/12 09:38:53;;;;;;;2.75;2.50;;;20.40;59.60;;;;;;5784650;24;20199;-85
2022/09/12 09:41:57;;;;;;;2.95;2.75;;;20.50;59.40;;;;;;5739320;24;20183;-85
2022/09/12 09:44:38;;;;;;;4.10;2.85;;;20.40;59.40;;;;;;5765091;24;20275;-84
2022/09/12 09:47:11;;;;;;;3.40;2.70;;;20.40;59.40;;;;;;5739251;24;20161;-85
2022/09/12 09:49:50;;;;;;;3.15;2.85;;;20.40;59.30;;;;;;5768430;24;20160;-85
2022/09/12 09:52:19;;;;;;;3.22;2.90;;;20.40;59.30;;;;;;5834434;24;20163;-86
2022/09/12 09:55:05;;;;;;;3.75;2.75;;;20.40;59.20;;;;;;5808531;24;20200;-84
2022/09/12 09:57:44;;;;;;;2.75;2.47;;;20.40;59.00;;;;;;5854845;24;20232;-84
2022/09/12 10:00:31;;;;;;;3.50;3.10;;;20.50;58.70;;;;;;5920781;24;20169;-84
2022/09/12 10:03:48;;;;;;;3.00;2.70;;;20.50;58.60;;;;;;5899367;24;20185;-84
2022/09/12 10:06:45;;;;;;;3.70;3.10;;;20.50;58.70;;;;;;5957483;24;20585;-84
2022/09/12 10:09:35;;;;;;;3.10;2.80;;;20.50;58.70;;;;;;5962029;23;20207;-85
2022/09/12 10:12:18;;;;;;;3.00;2.70;;;20.50;58.70;;;;;;5983842;23;20164;-83
2022/09/12 10:15:58;;;;;;;3.03;2.70;;;20.50;58.70;;;;;;6042398;23;20157;-84
2022/09/12 10:18:34;;;;;;;3.45;3.15;;;20.50;58.40;;;;;;6005155;23;20232;-85
2022/09/12 10:21:11;;;;;;;3.20;2.90;;;20.50;58.30;;;;;;6044110;23;20188;-84
2022/09/12 10:23:46;;;;;;;3.40;3.10;;;20.50;58.30;;;;;;6043771;23;20181;-84
2022/09/12 10:26:24;;;;;;;3.50;3.20;;;20.50;58.20;;;;;;6044092;23;20492;-84
2022/09/12 10:28:52;;;;;;;3.17;2.88;;;20.50;58.20;;;;;;5987198;23;20245;-85
2022/09/12 10:31:42;;;;;;;3.83;3.45;;;20.60;58.10;;;;;;5993045;23;20533;-83
2022/09/12 10:34:19;;;;;;;4.13;3.40;;;20.50;58.10;;;;;;6041585;23;20573;-83
2022/09/12 10:36:45;;;;;;;3.47;3.17;;;20.50;58.00;;;;;;6039979;23;20578;-85
2022/09/12 10:39:17;;;;;;;3.97;2.83;;;20.50;58.10;;;;;;6038567;23;20717;-85
2022/09/12 10:41:46;;;;;;;3.63;3.33;;;20.50;58.00;;;;;;6015258;23;20170;-83
2022/09/12 10:44:24;;;;;;;3.22;2.92;;;20.50;58.00;;;;;;6038537;23;20196;-84
2022/09/12 10:46:53;;;;;;;3.22;2.92;;;20.50;57.80;;;;;;5960114;24;20194;-83
2022/09/12 10:49:25;;;;;;;3.53;3.22;;;20.50;57.80;;;;;;6000040;23;20162;-83
2022/09/12 10:51:52;;;;;;;3.25;2.88;;;20.50;57.70;;;;;;5898791;24;20169;-83
2022/09/12 10:54:20;;;;;;;3.30;3.00;;;20.60;57.60;;;;;;5877080;24;20276;-84
2022/09/12 10:56:57;;;;;;;3.85;3.35;;;20.70;57.50;;;;;;5811141;24;20560;-84
2022/09/12 10:59:37;;;;;;;3.60;3.30;;;20.60;57.30;;;;;;5876460;24;20169;-83
2022/09/12 11:02:22;;;;;;;3.03;2.83;;;20.60;57.20;;;;;;5899082;24;20274;-83
2022/09/12 11:05:10;;;;;;;3.50;3.20;;;20.60;57.30;;;;;;5876677;24;20716;-84
2022/09/12 11:07:47;;;;;;;3.13;2.83;;;20.60;57.10;;;;;;5877164;24;20284;-83
2022/09/12 11:10:21;;;;;;;3.20;2.90;;;20.60;57.00;;;;;;5876508;24;20146;-84
2022/09/12 11:12:59;;;;;;;3.45;3.15;;;20.70;57.00;;;;;;5876550;24;20161;-83
2022/09/12 11:15:37;;;;;;;3.20;2.90;;;20.60;56.90;;;;;;5854829;24;20510;-83
2022/09/12 11:18:22;;;;;;;3.53;3.22;;;20.70;56.90;;;;;;5946854;23;20630;-84
2022/09/12 11:21:19;;;;;;;3.15;2.85;;;20.60;56.90;;;;;;5987126;23;20512;-83
2022/09/12 11:24:02;;;;;;;3.60;3.30;;;20.70;56.80;;;;;;6089063;23;20193;-83
2022/09/12 11:26:46;;;;;;;3.22;2.92;;;20.70;56.80;;;;;;6101438;23;20132;-84
2022/09/12 11:29:37;;;;;;;3.45;3.15;;;20.70;56.60;;;;;;6127553;23;20140;-84
2022/09/12 11:32:37;;;;;;;4.32;3.20;;;20.70;56.50;;;;;;6055901;23;20156;-83
2022/09/12 11:35:32;;;;;;;3.22;2.90;;;20.70;56.30;;;;;;6126902;23;20199;-83
2022/09/12 11:38:29;;;;;;;2.97;2.78;;;20.70;56.20;;;;;;6053865;23;20203;-83
2022/09/12 11:41:01;;;;;;;3.17;2.75;;;20.70;55.90;;;;;;6127261;23;20144;-83
2022/09/12 11:43:42;;;;;;;3.40;3.10;;;20.80;56.40;;;;;;6078640;23;20186;-84
2022/09/12 11:46:27;;;;;;;3.22;2.92;;;20.70;56.30;;;;;;6101520;23;20132;-84
2022/09/12 11:49:16;;;;;;;3.25;2.95;;;20.70;56.10;;;;;;6104739;23;20136;-83
2022/09/12 11:52:03;;;;;;;3.13;2.83;;;20.70;56.60;;;;;;6077563;23;20235;-83
2022/09/12 11:54:47;;;;;;;3.33;3.03;;;20.70;55.90;;;;;;6101381;23;20151;-84
2022/09/12 11:57:27;;;;;;;3.70;3.35;;;20.70;55.90;;;;;;6056086;23;20156;-83
2022/09/12 12:00:09;;;;;;;3.75;3.33;;;20.70;55.90;;;;;;6034277;23;20160;-83
2022/09/12 12:02:42;;;;;;;3.08;2.78;;;20.70;55.70;;;;;;6055662;23;20160;-83
2022/09/12 12:05:29;;;;;;;2.90;2.70;;;20.80;55.60;;;;;;6006232;23;20175;-83
2022/09/12 12:07:59;;;;;;;3.88;2.92;;;20.80;55.50;;;;;;6150206;23;20148;-83
2022/09/12 12:10:48;;;;;;;3.08;2.78;;;20.80;55.40;;;;;;6053473;23;20160;-84
2022/09/12 12:13:35;;;;;;;3.33;3.03;;;20.80;55.30;;;;;;6106363;23;20265;-83
2022/09/12 12:16:06;;;;;;;3.97;3.58;;;20.80;55.40;;;;;;6053928;23;20320;-83
2022/09/12 12:18:36;;;;;;;3.40;3.10;;;20.80;55.40;;;;;;6004972;23;20167;-84
2022/09/12 12:21:20;;;;;;;3.33;2.97;;;20.80;55.20;;;;;;6006595;23;20499;-85
2022/09/12 12:24:17;;;;;;;3.50;3.20;;;20.80;55.20;;;;;;6077254;23;20179;-83
2022/09/12 12:27:02;;;;;;;3.03;2.75;;;20.80;55.30;;;;;;6099822;23;20612;-84
2022/09/12 12:29:46;;;;;;;3.10;2.80;;;20.80;55.10;;;;;;6005815;23;20211;-82
2022/09/12 12:32:20;;;;;;;2.90;2.70;;;20.80;54.90;;;;;;6100864;23;20139;-82
2022/09/12 12:34:47;;;;;;;4.10;3.03;;;20.80;54.90;;;;;;6052547;23;20306;-82
2022/09/12 12:37:47;;;;;;;3.30;3.00;;;20.80;54.80;;;;;;6006773;23;20167;-83
2022/09/12 12:40:22;;;;;;;3.45;3.15;;;20.80;54.70;;;;;;6112309;23;20157;-83
2022/09/12 12:43:04;;;;;;;3.80;3.40;;;20.80;54.70;;;;;;6033576;23;20169;-83
2022/09/12 12:45:49;;;;;;;3.15;2.85;;;20.90;54.80;;;;;;6105677;23;20166;-84
2022/09/12 12:48:16;;;;;;;3.15;2.85;;;20.90;54.80;;;;;;6106736;23;20155;-84
2022/09/12 12:50:42;;;;;;;3.42;3.13;;;20.80;54.70;;;;;;6129965;23;20132;-83
2022/09/12 12:53:21;;;;;;;3.72;3.42;;;20.90;54.60;;;;;;6155978;23;20139;-83
2022/09/12 12:55:50;;;;;;;3.25;2.95;;;20.90;54.70;;;;;;6154594;23;20166;-83
2022/09/12 12:58:40;;;;;;;3.08;2.78;;;20.90;54.50;;;;;;6105863;23;20210;-84
2022/09/12 13:01:15;;;;;;;3.13;2.83;;;20.90;54.50;;;;;;6052323;23;20164;-83
2022/09/12 13:04:03;;;;;;;2.80;2.60;;;20.90;54.50;;;;;;6075884;23;20179;-84
2022/09/12 13:06:37;;;;;;;3.15;2.85;;;20.90;54.50;;;;;;6028826;23;20528;-83
2022/09/12 13:09:05;;;;;;;3.95;2.70;;;20.90;54.30;;;;;;6028339;23;20160;-83
2022/09/12 13:11:33;;;;;;;3.80;3.28;;;20.90;54.20;;;;;;6036826;23;20161;-84
2022/09/12 13:14:03;;;;;;;3.78;3.40;;;20.90;54.20;;;;;;6013593;23;20162;-83
2022/09/12 13:16:36;;;;;;;3.30;3.00;;;20.80;54.20;;;;;;5990969;23;20166;-83
2022/09/12 13:19:14;;;;;;;2.85;2.65;;;20.90;54.20;;;;;;5967504;23;20668;-84
2022/09/12 13:21:56;;;;;;;3.22;2.95;;;20.90;54.20;;;;;;5989979;23;20642;-84
2022/09/12 13:24:26;;;;;;;3.42;3.13;;;20.90;54.10;;;;;;5989827;23;20325;-83
2022/09/12 13:26:53;;;;;;;3.30;3.00;;;20.90;54.10;;;;;;5994095;23;20161;-83
2022/09/12 13:29:21;;;;;;;3.50;3.20;;;20.90;54.10;;;;;;6041934;23;20200;-83
2022/09/12 13:31:51;;;;;;;3.28;2.97;;;20.90;54.00;;;;;;5994800;23;20164;-87
2022/09/12 13:34:30;;;;;;;2.90;2.60;;;20.90;54.00;;;;;;6018308;23;20172;-84
2022/09/12 13:37:15;;;;;;;2.83;2.63;;;20.90;53.90;;;;;;5995973;23;20618;-85
2022/09/12 13:40:09;;;;;;;3.28;2.97;;;20.90;53.80;;;;;;6017742;23;20169;-83
2022/09/12 13:42:43;;;;;;;3.17;2.88;;;20.90;53.60;;;;;;6042435;23;20163;-85
2022/09/12 13:45:22;;;;;;;3.20;2.90;;;20.90;53.70;;;;;;6106043;23;20607;-83
2022/09/12 13:47:53;;;;;;;3.00;2.70;;;20.90;53.60;;;;;;6031720;23;20163;-83
2022/09/12 13:50:21;;;;;;;2.50;2.30;;;20.90;53.60;;;;;;6051360;23;20166;-83
2022/09/12 13:52:58;;;;;;;2.50;2.30;;;20.80;53.50;;;;;;6099031;23;20195;-83
2022/09/12 13:55:30;;;;;;;2.50;2.30;;;20.90;53.60;;;;;;6101044;23;20225;-81
2022/09/12 13:57:58;;;;;;;2.70;2.50;;;20.90;53.50;;;;;;6075228;23;20243;-82
2022/09/12 14:00:24;;;;;;;2.70;2.38;;;20.80;53.50;;;;;;6099426;23;20148;-84
2022/09/12 14:05:06;;;;;;;2.60;2.40;;;20.90;53.50;;;;;;6075502;23;20234;-83
2022/09/12 14:05:35;;;;;;;2.97;2.67;;;20.80;53.40;;;;;;6102995;23;20164;-81
2022/09/12 14:08:03;;;;;;;2.80;2.50;;;20.90;53.40;;;;;;6099521;23;20156;-83
2022/09/12 14:10:35;;;;;;;2.70;2.50;;;20.80;53.20;;;;;;6099822;23;20495;-82
2022/09/12 14:13:03;;;;;;;2.50;2.30;;;20.80;53.10;;;;;;6075961;23;20207;-84
2022/09/12 14:15:31;;;;;;;2.90;2.70;;;20.90;53.40;;;;;;6099700;23;20129;-82
2022/09/12 14:18:00;;;;;;;2.90;2.65;;;20.80;53.10;;;;;;6104790;23;20192;-83
2022/09/12 14:20:31;;;;;;;2.80;2.60;;;20.80;53.20;;;;;;6154387;23;20151;-82
2022/09/12 14:23:01;;;;;;;3.17;2.40;;;20.80;53.30;;;;;;6082652;23;20479;-82
2022/09/12 14:25:28;;;;;;;2.47;2.28;;;20.80;53.30;;;;;;6130023;23;20276;-83
2022/09/12 14:27:55;;;;;;;2.50;2.30;;;20.80;53.40;;;;;;6155321;23;20138;-82
2022/09/12 14:30:25;;;;;;;2.50;2.30;;;20.80;53.30;;;;;;6081209;23;20147;-83